sensor_id;sensor_type;location;lat;lon;timestamp;P1;durP1;ratioP1;P2;durP2;ratioP2
9178;SDS011;71287;48.414;11.478;2024-03-25T00:01:26;1.23;;;0.80;;
9178;SDS011;71287;48.414;11.478;2024-03-25T00:03:54;0.70;;;0.70;;
9178;SDS011;71287;48.414;11.478;2024-03-25T00:06:20;0.93;;;0.50;;
9178;SDS011;71287;48.414;11.478;2024-03-25T00:08:46;1.07;;;0.50;;
9178;SDS011;71287;48.414;11.478;2024-03-25T00:11:12;1.80;;;0.40;;
9178;SDS011;71287;48.414;11.478;2024-03-25T00:13:39;2.47;;;0.67;;
9178;SDS011;71287;48.414;11.478;2024-03-25T00:16:05;0.83;;;0.50;;
9178;SDS011;71287;48.414;11.478;2024-03-25T00:18:33;1.37;;;0.50;;
9178;SDS011;71287;48.414;11.478;2024-03-25T00:21:00;2.40;;;0.50;;
9178;SDS011;71287;48.414;11.478;2024-03-25T00:23:27;1.70;;;0.50;;
9178;SDS011;71287;48.414;11.478;2024-03-25T00:25:53;2.83;;;0.60;;
9178;SDS011;71287;48.414;11.478;2024-03-25T00:28:19;2.13;;;0.60;;
9178;SDS011;71287;48.414;11.478;2024-03-25T00:30:45;0.80;;;0.57;;
9178;SDS011;71287;48.414;11.478;2024-03-25T00:33:12;1.53;;;0.67;;
9178;SDS011;71287;48.414;11.478;2024-03-25T00:35:38;2.00;;;0.90;;
9178;SDS011;71287;48.414;11.478;2024-03-25T00:38:06;1.67;;;0.60;;
9178;SDS011;71287;48.414;11.478;2024-03-25T00:40:32;1.53;;;0.67;;
9178;SDS011;71287;48.414;11.478;2024-03-25T00:42:59;1.07;;;0.50;;
9178;SDS011;71287;48.414;11.478;2024-03-25T00:45:25;2.23;;;0.60;;
9178;SDS011;71287;48.414;11.478;2024-03-25T00:47:55;1.57;;;0.70;;
9178;SDS011;71287;48.414;11.478;2024-03-25T00:50:21;3.40;;;0.80;;
9178;SDS011;71287;48.414;11.478;2024-03-25T00:52:48;2.53;;;0.47;;
9178;SDS011;71287;48.414;11.478;2024-03-25T00:55:15;1.57;;;0.57;;
9178;SDS011;71287;48.414;11.478;2024-03-25T00:57:42;1.50;;;0.80;;
9178;SDS011;71287;48.414;11.478;2024-03-25T01:00:09;0.93;;;0.83;;
9178;SDS011;71287;48.414;11.478;2024-03-25T01:02:36;1.47;;;0.60;;
9178;SDS011;71287;48.414;11.478;2024-03-25T01:05:02;2.03;;;0.97;;
9178;SDS011;71287;48.414;11.478;2024-03-25T01:07:30;2.07;;;0.90;;
9178;SDS011;71287;48.414;11.478;2024-03-25T01:09:56;2.07;;;1.17;;
9178;SDS011;71287;48.414;11.478;2024-03-25T01:12:24;1.93;;;0.93;;
9178;SDS011;71287;48.414;11.478;2024-03-25T01:14:50;3.47;;;1.27;;
9178;SDS011;71287;48.414;11.478;2024-03-25T01:17:17;1.00;;;0.87;;
9178;SDS011;71287;48.414;11.478;2024-03-25T01:19:43;0.97;;;0.70;;
9178;SDS011;71287;48.414;11.478;2024-03-25T01:22:10;1.90;;;0.60;;
9178;SDS011;71287;48.414;11.478;2024-03-25T01:24:36;1.23;;;0.80;;
9178;SDS011;71287;48.414;11.478;2024-03-25T01:27:03;1.10;;;0.83;;
9178;SDS011;71287;48.414;11.478;2024-03-25T01:29:30;1.50;;;0.80;;
9178;SDS011;71287;48.414;11.478;2024-03-25T01:31:57;0.93;;;0.50;;
9178;SDS011;71287;48.414;11.478;2024-03-25T01:34:24;0.70;;;0.60;;
9178;SDS011;71287;48.414;11.478;2024-03-25T01:36:51;1.43;;;0.70;;
9178;SDS011;71287;48.414;11.478;2024-03-25T01:39:17;1.00;;;0.50;;
9178;SDS011;71287;48.414;11.478;2024-03-25T01:41:44;1.33;;;0.60;;
9178;SDS011;71287;48.414;11.478;2024-03-25T01:44:10;1.87;;;0.70;;
9178;SDS011;71287;48.414;11.478;2024-03-25T01:46:38;1.23;;;0.80;;
9178;SDS011;71287;48.414;11.478;2024-03-25T01:49:05;2.10;;;0.80;;
9178;SDS011;71287;48.414;11.478;2024-03-25T01:51:32;1.27;;;0.70;;
9178;SDS011;71287;48.414;11.478;2024-03-25T01:54:00;2.17;;;0.70;;
9178;SDS011;71287;48.414;11.478;2024-03-25T01:56:27;1.97;;;0.90;;
9178;SDS011;71287;48.414;11.478;2024-03-25T01:58:56;1.03;;;0.60;;
9178;SDS011;71287;48.414;11.478;2024-03-25T02:01:23;2.63;;;0.80;;
9178;SDS011;71287;48.414;11.478;2024-03-25T02:03:51;0.70;;;0.70;;
9178;SDS011;71287;48.414;11.478;2024-03-25T02:06:20;3.00;;;0.60;;
9178;SDS011;71287;48.414;11.478;2024-03-25T02:08:47;1.80;;;0.60;;
9178;SDS011;71287;48.414;11.478;2024-03-25T02:11:14;0.77;;;0.60;;
9178;SDS011;71287;48.414;11.478;2024-03-25T02:13:41;1.73;;;0.70;;
9178;SDS011;71287;48.414;11.478;2024-03-25T02:16:08;0.77;;;0.77;;
9178;SDS011;71287;48.414;11.478;2024-03-25T02:18:33;1.43;;;0.80;;
9178;SDS011;71287;48.414;11.478;2024-03-25T02:21:02;1.10;;;0.60;;
9178;SDS011;71287;48.414;11.478;2024-03-25T02:23:28;1.50;;;0.80;;
9178;SDS011;71287;48.414;11.478;2024-03-25T02:25:56;1.80;;;0.70;;
9178;SDS011;71287;48.414;11.478;2024-03-25T02:28:22;1.73;;;0.70;;
9178;SDS011;71287;48.414;11.478;2024-03-25T02:30:49;0.83;;;0.70;;
9178;SDS011;71287;48.414;11.478;2024-03-25T02:33:15;2.60;;;0.90;;
9178;SDS011;71287;48.414;11.478;2024-03-25T02:35:42;1.20;;;0.60;;
9178;SDS011;71287;48.414;11.478;2024-03-25T02:38:09;1.30;;;0.63;;
9178;SDS011;71287;48.414;11.478;2024-03-25T02:40:37;2.33;;;0.80;;
9178;SDS011;71287;48.414;11.478;2024-03-25T02:43:04;2.40;;;1.07;;
9178;SDS011;71287;48.414;11.478;2024-03-25T02:45:32;4.40;;;1.00;;
9178;SDS011;71287;48.414;11.478;2024-03-25T02:47:58;2.90;;;0.90;;
9178;SDS011;71287;48.414;11.478;2024-03-25T02:50:25;0.70;;;0.70;;
9178;SDS011;71287;48.414;11.478;2024-03-25T02:52:51;1.93;;;0.57;;
9178;SDS011;71287;48.414;11.478;2024-03-25T02:55:18;1.10;;;0.80;;
9178;SDS011;71287;48.414;11.478;2024-03-25T02:57:44;1.27;;;0.77;;
9178;SDS011;71287;48.414;11.478;2024-03-25T03:00:13;1.90;;;0.60;;
9178;SDS011;71287;48.414;11.478;2024-03-25T03:02:39;3.07;;;0.90;;
9178;SDS011;71287;48.414;11.478;2024-03-25T03:05:06;1.03;;;0.77;;
9178;SDS011;71287;48.414;11.478;2024-03-25T03:07:32;3.57;;;0.90;;
9178;SDS011;71287;48.414;11.478;2024-03-25T03:09:59;2.87;;;0.80;;
9178;SDS011;71287;48.414;11.478;2024-03-25T03:12:25;2.70;;;0.87;;
9178;SDS011;71287;48.414;11.478;2024-03-25T03:14:52;1.97;;;1.10;;
9178;SDS011;71287;48.414;11.478;2024-03-25T03:17:19;1.40;;;0.90;;
9178;SDS011;71287;48.414;11.478;2024-03-25T03:19:46;2.77;;;0.93;;
9178;SDS011;71287;48.414;11.478;2024-03-25T03:22:11;1.47;;;0.90;;
9178;SDS011;71287;48.414;11.478;2024-03-25T03:24:38;1.57;;;1.13;;
9178;SDS011;71287;48.414;11.478;2024-03-25T03:27:04;1.53;;;1.00;;
9178;SDS011;71287;48.414;11.478;2024-03-25T03:29:31;2.03;;;0.80;;
9178;SDS011;71287;48.414;11.478;2024-03-25T03:31:57;1.60;;;1.00;;
9178;SDS011;71287;48.414;11.478;2024-03-25T03:34:26;1.93;;;1.00;;
9178;SDS011;71287;48.414;11.478;2024-03-25T03:36:52;1.10;;;0.87;;
9178;SDS011;71287;48.414;11.478;2024-03-25T03:39:18;3.43;;;1.20;;
9178;SDS011;71287;48.414;11.478;2024-03-25T03:41:44;2.47;;;1.00;;
9178;SDS011;71287;48.414;11.478;2024-03-25T03:44:11;1.60;;;0.90;;
9178;SDS011;71287;48.414;11.478;2024-03-25T03:46:38;1.00;;;1.00;;
9178;SDS011;71287;48.414;11.478;2024-03-25T03:49:04;0.93;;;0.93;;
9178;SDS011;71287;48.414;11.478;2024-03-25T03:51:31;2.37;;;1.10;;
9178;SDS011;71287;48.414;11.478;2024-03-25T03:53:58;3.20;;;1.10;;
9178;SDS011;71287;48.414;11.478;2024-03-25T03:56:24;1.03;;;0.80;;
9178;SDS011;71287;48.414;11.478;2024-03-25T03:58:51;1.47;;;1.10;;
9178;SDS011;71287;48.414;11.478;2024-03-25T04:01:16;2.63;;;1.30;;
9178;SDS011;71287;48.414;11.478;2024-03-25T04:03:44;2.40;;;1.00;;
9178;SDS011;71287;48.414;11.478;2024-03-25T04:06:10;1.00;;;0.67;;
9178;SDS011;71287;48.414;11.478;2024-03-25T04:08:39;2.50;;;1.37;;
9178;SDS011;71287;48.414;11.478;2024-03-25T04:11:05;3.73;;;1.07;;
9178;SDS011;71287;48.414;11.478;2024-03-25T04:13:32;2.30;;;1.03;;
9178;SDS011;71287;48.414;11.478;2024-03-25T04:16:00;1.47;;;1.10;;
9178;SDS011;71287;48.414;11.478;2024-03-25T04:18:29;1.33;;;0.80;;
9178;SDS011;71287;48.414;11.478;2024-03-25T04:20:55;2.83;;;1.17;;
9178;SDS011;71287;48.414;11.478;2024-03-25T04:23:21;2.40;;;1.00;;
9178;SDS011;71287;48.414;11.478;2024-03-25T04:25:49;2.57;;;1.10;;
9178;SDS011;71287;48.414;11.478;2024-03-25T04:28:16;2.07;;;1.20;;
9178;SDS011;71287;48.414;11.478;2024-03-25T04:30:42;1.43;;;0.97;;
9178;SDS011;71287;48.414;11.478;2024-03-25T04:33:08;2.77;;;1.20;;
9178;SDS011;71287;48.414;11.478;2024-03-25T04:35:34;1.63;;;0.80;;
9178;SDS011;71287;48.414;11.478;2024-03-25T04:38:01;1.53;;;0.97;;
9178;SDS011;71287;48.414;11.478;2024-03-25T04:40:27;1.23;;;1.10;;
9178;SDS011;71287;48.414;11.478;2024-03-25T04:42:55;1.33;;;1.00;;
9178;SDS011;71287;48.414;11.478;2024-03-25T04:45:21;1.07;;;0.80;;
9178;SDS011;71287;48.414;11.478;2024-03-25T04:47:46;1.83;;;1.00;;
9178;SDS011;71287;48.414;11.478;2024-03-25T04:50:12;1.20;;;1.10;;
9178;SDS011;71287;48.414;11.478;2024-03-25T04:52:38;3.00;;;1.37;;
9178;SDS011;71287;48.414;11.478;2024-03-25T04:55:04;3.30;;;1.23;;
9178;SDS011;71287;48.414;11.478;2024-03-25T04:57:31;3.60;;;1.17;;
9178;SDS011;71287;48.414;11.478;2024-03-25T04:59:58;2.67;;;1.10;;
9178;SDS011;71287;48.414;11.478;2024-03-25T05:02:24;1.63;;;1.27;;
9178;SDS011;71287;48.414;11.478;2024-03-25T05:04:49;1.07;;;0.97;;
9178;SDS011;71287;48.414;11.478;2024-03-25T05:07:15;0.80;;;0.80;;
9178;SDS011;71287;48.414;11.478;2024-03-25T05:09:41;3.17;;;1.40;;
9178;SDS011;71287;48.414;11.478;2024-03-25T05:12:07;1.87;;;1.20;;
9178;SDS011;71287;48.414;11.478;2024-03-25T05:14:33;2.87;;;1.13;;
9178;SDS011;71287;48.414;11.478;2024-03-25T05:17:00;1.90;;;1.10;;
9178;SDS011;71287;48.414;11.478;2024-03-25T05:19:26;3.17;;;1.23;;
9178;SDS011;71287;48.414;11.478;2024-03-25T05:21:52;1.73;;;1.27;;
9178;SDS011;71287;48.414;11.478;2024-03-25T05:24:18;1.63;;;1.10;;
9178;SDS011;71287;48.414;11.478;2024-03-25T05:26:43;2.60;;;1.37;;
9178;SDS011;71287;48.414;11.478;2024-03-25T05:29:09;1.23;;;1.00;;
9178;SDS011;71287;48.414;11.478;2024-03-25T05:31:35;1.73;;;1.27;;
9178;SDS011;71287;48.414;11.478;2024-03-25T05:34:03;1.30;;;1.20;;
9178;SDS011;71287;48.414;11.478;2024-03-25T05:36:28;1.97;;;1.37;;
9178;SDS011;71287;48.414;11.478;2024-03-25T05:38:54;2.03;;;1.00;;
9178;SDS011;71287;48.414;11.478;2024-03-25T05:41:20;2.17;;;1.47;;
9178;SDS011;71287;48.414;11.478;2024-03-25T05:43:46;2.20;;;1.57;;
9178;SDS011;71287;48.414;11.478;2024-03-25T05:46:12;4.40;;;1.30;;
9178;SDS011;71287;48.414;11.478;2024-03-25T05:48:38;1.30;;;1.13;;
9178;SDS011;71287;48.414;11.478;2024-03-25T05:51:05;1.30;;;1.20;;
9178;SDS011;71287;48.414;11.478;2024-03-25T05:53:31;2.23;;;1.20;;
9178;SDS011;71287;48.414;11.478;2024-03-25T05:55:57;4.03;;;1.33;;
9178;SDS011;71287;48.414;11.478;2024-03-25T05:58:23;1.03;;;0.93;;
9178;SDS011;71287;48.414;11.478;2024-03-25T06:00:49;3.07;;;1.00;;
9178;SDS011;71287;48.414;11.478;2024-03-25T06:03:15;1.83;;;1.00;;
9178;SDS011;71287;48.414;11.478;2024-03-25T06:05:41;3.13;;;1.07;;
9178;SDS011;71287;48.414;11.478;2024-03-25T06:08:09;0.73;;;0.73;;
9178;SDS011;71287;48.414;11.478;2024-03-25T06:10:35;2.50;;;1.00;;
9178;SDS011;71287;48.414;11.478;2024-03-25T06:13:02;2.60;;;1.03;;
9178;SDS011;71287;48.414;11.478;2024-03-25T06:15:28;2.33;;;1.00;;
9178;SDS011;71287;48.414;11.478;2024-03-25T06:17:54;2.47;;;1.87;;
9178;SDS011;71287;48.414;11.478;2024-03-25T06:20:19;2.57;;;1.67;;
9178;SDS011;71287;48.414;11.478;2024-03-25T06:22:45;2.50;;;1.70;;
9178;SDS011;71287;48.414;11.478;2024-03-25T06:25:13;2.53;;;1.20;;
9178;SDS011;71287;48.414;11.478;2024-03-25T06:27:38;2.77;;;1.30;;
9178;SDS011;71287;48.414;11.478;2024-03-25T06:30:05;3.80;;;1.27;;
9178;SDS011;71287;48.414;11.478;2024-03-25T06:32:50;1.20;;;1.10;;
9178;SDS011;71287;48.414;11.478;2024-03-25T06:35:34;1.43;;;0.97;;
9178;SDS011;71287;48.414;11.478;2024-03-25T06:37:59;1.43;;;1.20;;
9178;SDS011;71287;48.414;11.478;2024-03-25T06:40:27;3.10;;;1.10;;
9178;SDS011;71287;48.414;11.478;2024-03-25T06:42:52;1.53;;;1.00;;
9178;SDS011;71287;48.414;11.478;2024-03-25T06:45:18;2.37;;;1.30;;
9178;SDS011;71287;48.414;11.478;2024-03-25T06:47:44;1.47;;;1.00;;
9178;SDS011;71287;48.414;11.478;2024-03-25T06:50:10;1.90;;;1.17;;
9178;SDS011;71287;48.414;11.478;2024-03-25T06:52:36;1.83;;;1.10;;
9178;SDS011;71287;48.414;11.478;2024-03-25T06:55:02;2.03;;;1.20;;
9178;SDS011;71287;48.414;11.478;2024-03-25T06:57:29;2.50;;;1.30;;
9178;SDS011;71287;48.414;11.478;2024-03-25T06:59:55;4.93;;;1.30;;
9178;SDS011;71287;48.414;11.478;2024-03-25T07:02:21;2.83;;;1.17;;
9178;SDS011;71287;48.414;11.478;2024-03-25T07:04:46;3.17;;;1.10;;
9178;SDS011;71287;48.414;11.478;2024-03-25T07:07:12;1.03;;;0.90;;
9178;SDS011;71287;48.414;11.478;2024-03-25T07:09:38;2.80;;;1.00;;
9178;SDS011;71287;48.414;11.478;2024-03-25T07:12:04;3.10;;;1.43;;
9178;SDS011;71287;48.414;11.478;2024-03-25T07:14:32;1.53;;;1.30;;
9178;SDS011;71287;48.414;11.478;2024-03-25T07:16:58;1.77;;;1.27;;
9178;SDS011;71287;48.414;11.478;2024-03-25T07:19:24;1.80;;;1.00;;
9178;SDS011;71287;48.414;11.478;2024-03-25T07:21:50;1.97;;;1.00;;
9178;SDS011;71287;48.414;11.478;2024-03-25T07:24:16;3.37;;;1.03;;
9178;SDS011;71287;48.414;11.478;2024-03-25T07:26:41;1.57;;;1.10;;
9178;SDS011;71287;48.414;11.478;2024-03-25T07:29:07;2.27;;;0.97;;
9178;SDS011;71287;48.414;11.478;2024-03-25T07:31:34;2.37;;;0.93;;
9178;SDS011;71287;48.414;11.478;2024-03-25T07:34:00;2.30;;;1.53;;
9178;SDS011;71287;48.414;11.478;2024-03-25T07:36:26;3.23;;;1.00;;
9178;SDS011;71287;48.414;11.478;2024-03-25T07:38:52;1.13;;;0.87;;
9178;SDS011;71287;48.414;11.478;2024-03-25T07:41:18;1.53;;;0.90;;
9178;SDS011;71287;48.414;11.478;2024-03-25T07:43:43;1.73;;;1.15;;
9178;SDS011;71287;48.414;11.478;2024-03-25T07:46:09;2.58;;;1.10;;
9178;SDS011;71287;48.414;11.478;2024-03-25T07:48:36;2.83;;;1.08;;
9178;SDS011;71287;48.414;11.478;2024-03-25T07:51:02;2.15;;;1.13;;
9178;SDS011;71287;48.414;11.478;2024-03-25T07:53:28;1.70;;;1.15;;
9178;SDS011;71287;48.414;11.478;2024-03-25T07:55:54;1.88;;;1.00;;
9178;SDS011;71287;48.414;11.478;2024-03-25T07:58:20;1.70;;;0.82;;
9178;SDS011;71287;48.414;11.478;2024-03-25T08:00:46;1.30;;;0.98;;
9178;SDS011;71287;48.414;11.478;2024-03-25T08:03:12;2.05;;;1.00;;
9178;SDS011;71287;48.414;11.478;2024-03-25T08:05:39;2.33;;;0.90;;
9178;SDS011;71287;48.414;11.478;2024-03-25T08:08:05;1.58;;;0.98;;
9178;SDS011;71287;48.414;11.478;2024-03-25T08:10:31;3.83;;;1.08;;
9178;SDS011;71287;48.414;11.478;2024-03-25T08:12:57;2.40;;;1.20;;
9178;SDS011;71287;48.414;11.478;2024-03-25T08:15:23;3.75;;;1.08;;
9178;SDS011;71287;48.414;11.478;2024-03-25T08:17:49;1.33;;;1.02;;
9178;SDS011;71287;48.414;11.478;2024-03-25T08:20:14;2.13;;;1.13;;
9178;SDS011;71287;48.414;11.478;2024-03-25T08:22:42;3.47;;;1.17;;
9178;SDS011;71287;48.414;11.478;2024-03-25T08:25:08;2.45;;;1.02;;
9178;SDS011;71287;48.414;11.478;2024-03-25T08:27:33;5.07;;;1.42;;
9178;SDS011;71287;48.414;11.478;2024-03-25T08:29:59;2.25;;;1.30;;
9178;SDS011;71287;48.414;11.478;2024-03-25T08:32:25;1.45;;;1.30;;
9178;SDS011;71287;48.414;11.478;2024-03-25T08:34:51;1.77;;;1.30;;
9178;SDS011;71287;48.414;11.478;2024-03-25T08:37:17;1.70;;;1.42;;
9178;SDS011;71287;48.414;11.478;2024-03-25T08:39:44;2.65;;;1.48;;
9178;SDS011;71287;48.414;11.478;2024-03-25T08:42:09;3.53;;;1.30;;
9178;SDS011;71287;48.414;11.478;2024-03-25T08:44:35;1.10;;;1.00;;
9178;SDS011;71287;48.414;11.478;2024-03-25T08:47:01;2.10;;;1.40;;
9178;SDS011;71287;48.414;11.478;2024-03-25T08:49:27;1.83;;;1.35;;
9178;SDS011;71287;48.414;11.478;2024-03-25T08:51:53;2.83;;;1.50;;
9178;SDS011;71287;48.414;11.478;2024-03-25T08:54:18;2.20;;;1.20;;
9178;SDS011;71287;48.414;11.478;2024-03-25T08:56:46;2.50;;;1.30;;
9178;SDS011;71287;48.414;11.478;2024-03-25T08:59:11;1.50;;;1.10;;
9178;SDS011;71287;48.414;11.478;2024-03-25T09:01:37;1.73;;;1.30;;
9178;SDS011;71287;48.414;11.478;2024-03-25T09:04:03;2.13;;;1.40;;
9178;SDS011;71287;48.414;11.478;2024-03-25T09:06:29;3.03;;;1.43;;
9178;SDS011;71287;48.414;11.478;2024-03-25T09:08:55;2.87;;;1.50;;
9178;SDS011;71287;48.414;11.478;2024-03-25T09:11:39;1.43;;;1.20;;
9178;SDS011;71287;48.414;11.478;2024-03-25T09:14:06;2.10;;;1.53;;
9178;SDS011;71287;48.414;11.478;2024-03-25T09:16:32;2.37;;;1.53;;
9178;SDS011;71287;48.414;11.478;2024-03-25T09:18:58;2.40;;;1.23;;
9178;SDS011;71287;48.414;11.478;2024-03-25T09:21:24;2.23;;;1.17;;
9178;SDS011;71287;48.414;11.478;2024-03-25T09:23:49;1.73;;;1.50;;
9178;SDS011;71287;48.414;11.478;2024-03-25T09:26:15;1.57;;;1.47;;
9178;SDS011;71287;48.414;11.478;2024-03-25T09:28:41;2.43;;;1.50;;
9178;SDS011;71287;48.414;11.478;2024-03-25T09:31:08;2.03;;;1.20;;
9178;SDS011;71287;48.414;11.478;2024-03-25T09:33:34;4.37;;;1.47;;
9178;SDS011;71287;48.414;11.478;2024-03-25T09:36:00;2.10;;;1.23;;
9178;SDS011;71287;48.414;11.478;2024-03-25T09:38:26;2.30;;;1.20;;
9178;SDS011;71287;48.414;11.478;2024-03-25T09:40:52;1.53;;;1.20;;
9178;SDS011;71287;48.414;11.478;2024-03-25T09:43:21;2.53;;;1.47;;
9178;SDS011;71287;48.414;11.478;2024-03-25T09:45:50;2.03;;;1.43;;
9178;SDS011;71287;48.414;11.478;2024-03-25T09:48:18;2.03;;;1.40;;
9178;SDS011;71287;48.414;11.478;2024-03-25T09:50:46;1.80;;;1.20;;
9178;SDS011;71287;48.414;11.478;2024-03-25T09:53:14;2.30;;;1.30;;
9178;SDS011;71287;48.414;11.478;2024-03-25T09:55:40;3.50;;;1.40;;
9178;SDS011;71287;48.414;11.478;2024-03-25T09:58:06;1.67;;;1.37;;
9178;SDS011;71287;48.414;11.478;2024-03-25T10:00:33;1.70;;;1.40;;
9178;SDS011;71287;48.414;11.478;2024-03-25T10:02:58;3.00;;;1.30;;
9178;SDS011;71287;48.414;11.478;2024-03-25T10:05:26;2.67;;;1.33;;
9178;SDS011;71287;48.414;11.478;2024-03-25T10:07:51;2.20;;;1.20;;
9178;SDS011;71287;48.414;11.478;2024-03-25T10:10:18;2.13;;;1.37;;
9178;SDS011;71287;48.414;11.478;2024-03-25T10:12:45;2.00;;;1.20;;
9178;SDS011;71287;48.414;11.478;2024-03-25T10:15:14;3.47;;;1.10;;
9178;SDS011;71287;48.414;11.478;2024-03-25T10:17:40;1.87;;;1.10;;
9178;SDS011;71287;48.414;11.478;2024-03-25T10:20:07;1.40;;;0.97;;
9178;SDS011;71287;48.414;11.478;2024-03-25T10:22:41;1.67;;;1.07;;
9178;SDS011;71287;48.414;11.478;2024-03-25T10:25:07;2.50;;;1.30;;
9178;SDS011;71287;48.414;11.478;2024-03-25T10:27:52;2.23;;;0.90;;
9178;SDS011;71287;48.414;11.478;2024-03-25T10:30:19;1.97;;;1.10;;
9178;SDS011;71287;48.414;11.478;2024-03-25T10:32:45;1.53;;;1.00;;
9178;SDS011;71287;48.414;11.478;2024-03-25T10:35:11;1.00;;;0.93;;
9178;SDS011;71287;48.414;11.478;2024-03-25T10:37:38;1.50;;;1.10;;
9178;SDS011;71287;48.414;11.478;2024-03-25T10:40:06;2.30;;;1.10;;
9178;SDS011;71287;48.414;11.478;2024-03-25T10:42:35;4.17;;;0.93;;
9178;SDS011;71287;48.414;11.478;2024-03-25T10:45:08;2.10;;;1.20;;
9178;SDS011;71287;48.414;11.478;2024-03-25T10:47:35;1.23;;;1.00;;
9178;SDS011;71287;48.414;11.478;2024-03-25T10:50:03;2.93;;;1.23;;
9178;SDS011;71287;48.414;11.478;2024-03-25T10:52:33;1.73;;;1.20;;
9178;SDS011;71287;48.414;11.478;2024-03-25T10:55:01;2.60;;;1.53;;
9178;SDS011;71287;48.414;11.478;2024-03-25T10:57:28;1.27;;;1.10;;
9178;SDS011;71287;48.414;11.478;2024-03-25T10:59:55;1.93;;;1.20;;
9178;SDS011;71287;48.414;11.478;2024-03-25T11:02:22;1.80;;;0.80;;
9178;SDS011;71287;48.414;11.478;2024-03-25T11:04:49;0.90;;;0.87;;
9178;SDS011;71287;48.414;11.478;2024-03-25T11:07:16;1.60;;;0.70;;
9178;SDS011;71287;48.414;11.478;2024-03-25T11:09:42;2.50;;;1.00;;
9178;SDS011;71287;48.414;11.478;2024-03-25T11:12:09;2.00;;;1.03;;
9178;SDS011;71287;48.414;11.478;2024-03-25T11:14:37;2.27;;;1.27;;
9178;SDS011;71287;48.414;11.478;2024-03-25T11:17:13;1.83;;;1.00;;
9178;SDS011;71287;48.414;11.478;2024-03-25T11:19:40;1.53;;;0.80;;
9178;SDS011;71287;48.414;11.478;2024-03-25T11:22:06;1.07;;;0.90;;
9178;SDS011;71287;48.414;11.478;2024-03-25T11:24:34;2.07;;;1.00;;
9178;SDS011;71287;48.414;11.478;2024-03-25T11:27:00;1.67;;;1.10;;
9178;SDS011;71287;48.414;11.478;2024-03-25T11:29:26;1.80;;;1.20;;
9178;SDS011;71287;48.414;11.478;2024-03-25T11:31:53;1.23;;;1.00;;
9178;SDS011;71287;48.414;11.478;2024-03-25T11:34:22;2.73;;;1.00;;
9178;SDS011;71287;48.414;11.478;2024-03-25T11:36:48;1.20;;;1.10;;
9178;SDS011;71287;48.414;11.478;2024-03-25T11:39:14;1.00;;;0.90;;
9178;SDS011;71287;48.414;11.478;2024-03-25T11:41:41;2.87;;;1.00;;
9178;SDS011;71287;48.414;11.478;2024-03-25T11:44:07;1.37;;;1.00;;
9178;SDS011;71287;48.414;11.478;2024-03-25T11:46:35;1.67;;;1.10;;
9178;SDS011;71287;48.414;11.478;2024-03-25T11:49:03;1.33;;;1.13;;
9178;SDS011;71287;48.414;11.478;2024-03-25T11:51:30;1.90;;;1.10;;
9178;SDS011;71287;48.414;11.478;2024-03-25T11:53:56;0.70;;;0.60;;
9178;SDS011;71287;48.414;11.478;2024-03-25T11:56:22;2.00;;;0.63;;
9178;SDS011;71287;48.414;11.478;2024-03-25T11:58:48;1.10;;;0.60;;
9178;SDS011;71287;48.414;11.478;2024-03-25T12:01:14;1.30;;;0.70;;
9178;SDS011;71287;48.414;11.478;2024-03-25T12:03:40;1.93;;;0.60;;
9178;SDS011;71287;48.414;11.478;2024-03-25T12:06:07;1.33;;;0.80;;
9178;SDS011;71287;48.414;11.478;2024-03-25T12:08:33;0.90;;;0.60;;
9178;SDS011;71287;48.414;11.478;2024-03-25T12:10:59;1.00;;;0.90;;
9178;SDS011;71287;48.414;11.478;2024-03-25T12:13:43;3.63;;;0.80;;
9178;SDS011;71287;48.414;11.478;2024-03-25T12:16:09;1.47;;;0.70;;
9178;SDS011;71287;48.414;11.478;2024-03-25T12:18:35;1.33;;;0.77;;
9178;SDS011;71287;48.414;11.478;2024-03-25T12:21:01;1.70;;;0.83;;
9178;SDS011;71287;48.414;11.478;2024-03-25T12:23:31;1.17;;;0.60;;
9178;SDS011;71287;48.414;11.478;2024-03-25T12:25:58;0.77;;;0.60;;
9178;SDS011;71287;48.414;11.478;2024-03-25T12:28:24;2.20;;;0.70;;
9178;SDS011;71287;48.414;11.478;2024-03-25T12:30:51;2.40;;;1.00;;
9178;SDS011;71287;48.414;11.478;2024-03-25T12:33:17;1.40;;;0.87;;
9178;SDS011;71287;48.414;11.478;2024-03-25T12:35:44;1.80;;;0.80;;
9178;SDS011;71287;48.414;11.478;2024-03-25T12:38:21;1.30;;;0.50;;
9178;SDS011;71287;48.414;11.478;2024-03-25T12:40:51;2.13;;;0.60;;
9178;SDS011;71287;48.414;11.478;2024-03-25T12:43:18;1.20;;;0.50;;
9178;SDS011;71287;48.414;11.478;2024-03-25T12:45:44;1.53;;;0.60;;
9178;SDS011;71287;48.414;11.478;2024-03-25T12:48:09;1.47;;;0.60;;
9178;SDS011;71287;48.414;11.478;2024-03-25T12:50:35;2.17;;;0.60;;
9178;SDS011;71287;48.414;11.478;2024-03-25T12:53:02;1.27;;;0.70;;
9178;SDS011;71287;48.414;11.478;2024-03-25T12:55:28;0.63;;;0.63;;
9178;SDS011;71287;48.414;11.478;2024-03-25T12:57:55;1.23;;;0.67;;
9178;SDS011;71287;48.414;11.478;2024-03-25T13:00:21;1.00;;;0.70;;
9178;SDS011;71287;48.414;11.478;2024-03-25T13:02:47;1.30;;;0.67;;
9178;SDS011;71287;48.414;11.478;2024-03-25T13:05:13;0.90;;;0.53;;
9178;SDS011;71287;48.414;11.478;2024-03-25T13:07:39;0.77;;;0.40;;
9178;SDS011;71287;48.414;11.478;2024-03-25T13:10:05;0.53;;;0.40;;
9178;SDS011;71287;48.414;11.478;2024-03-25T13:12:31;0.90;;;0.70;;
9178;SDS011;71287;48.414;11.478;2024-03-25T13:14:58;2.40;;;0.43;;
9178;SDS011;71287;48.414;11.478;2024-03-25T13:17:25;0.70;;;0.40;;
9178;SDS011;71287;48.414;11.478;2024-03-25T13:19:50;1.73;;;0.70;;
9178;SDS011;71287;48.414;11.478;2024-03-25T13:22:16;0.50;;;0.50;;
9178;SDS011;71287;48.414;11.478;2024-03-25T13:24:42;1.37;;;0.43;;
9178;SDS011;71287;48.414;11.478;2024-03-25T13:27:08;0.50;;;0.50;;
9178;SDS011;71287;48.414;11.478;2024-03-25T13:29:34;1.37;;;0.43;;
9178;SDS011;71287;48.414;11.478;2024-03-25T13:32:01;0.63;;;0.60;;
9178;SDS011;71287;48.414;11.478;2024-03-25T13:34:27;0.70;;;0.67;;
9178;SDS011;71287;48.414;11.478;2024-03-25T13:36:53;1.97;;;0.70;;
9178;SDS011;71287;48.414;11.478;2024-03-25T13:39:18;0.70;;;0.50;;
9178;SDS011;71287;48.414;11.478;2024-03-25T13:41:44;1.00;;;0.63;;
9178;SDS011;71287;48.414;11.478;2024-03-25T13:44:10;0.80;;;0.60;;
9178;SDS011;71287;48.414;11.478;2024-03-25T13:46:36;1.03;;;0.80;;
9178;SDS011;71287;48.414;11.478;2024-03-25T13:49:03;1.10;;;0.50;;
9178;SDS011;71287;48.414;11.478;2024-03-25T13:51:29;1.03;;;0.57;;
9178;SDS011;71287;48.414;11.478;2024-03-25T13:53:55;0.97;;;0.57;;
9178;SDS011;71287;48.414;11.478;2024-03-25T13:56:20;1.53;;;0.60;;
9178;SDS011;71287;48.414;11.478;2024-03-25T13:58:46;1.77;;;0.50;;
9178;SDS011;71287;48.414;11.478;2024-03-25T14:01:12;0.90;;;0.53;;
9178;SDS011;71287;48.414;11.478;2024-03-25T14:03:38;0.87;;;0.60;;
9178;SDS011;71287;48.414;11.478;2024-03-25T14:06:05;1.33;;;0.60;;
9178;SDS011;71287;48.414;11.478;2024-03-25T14:08:31;0.90;;;0.50;;
9178;SDS011;71287;48.414;11.478;2024-03-25T14:10:57;0.90;;;0.60;;
9178;SDS011;71287;48.414;11.478;2024-03-25T14:13:23;0.80;;;0.60;;
9178;SDS011;71287;48.414;11.478;2024-03-25T14:15:49;0.73;;;0.43;;
9178;SDS011;71287;48.414;11.478;2024-03-25T14:18:15;2.50;;;0.70;;
9178;SDS011;71287;48.414;11.478;2024-03-25T14:20:41;1.40;;;0.60;;
9178;SDS011;71287;48.414;11.478;2024-03-25T14:23:09;0.60;;;0.60;;
9178;SDS011;71287;48.414;11.478;2024-03-25T14:25:34;1.30;;;0.50;;
9178;SDS011;71287;48.414;11.478;2024-03-25T14:28:00;0.90;;;0.50;;
9178;SDS011;71287;48.414;11.478;2024-03-25T14:30:26;0.70;;;0.30;;
9178;SDS011;71287;48.414;11.478;2024-03-25T14:32:52;0.60;;;0.60;;
9178;SDS011;71287;48.414;11.478;2024-03-25T14:35:18;1.03;;;0.60;;
9178;SDS011;71287;48.414;11.478;2024-03-25T14:37:44;0.70;;;0.60;;
9178;SDS011;71287;48.414;11.478;2024-03-25T14:40:11;1.77;;;0.53;;
9178;SDS011;71287;48.414;11.478;2024-03-25T14:42:38;0.50;;;0.50;;
9178;SDS011;71287;48.414;11.478;2024-03-25T14:45:04;0.83;;;0.80;;